Data for 01/28/2006

Time Sea-Level Adjusted Pressure Absolute Pressure Temperature Relative Humidity Dew Point   
(mb) (inHg) (mb) (inHg) (C) (F) (%) (C) (F)
00:05 1015 29.97 844 24.92 -4 24.8 60 -10.8 12.6
00:10 1015 29.97 844 24.92 -3.9 25 59 -10.7 12.7
00:15 1015 29.97 844 24.92 -3.2 26.2 56 -10.7 12.7
00:20 1015 29.97 844 24.92 -2.8 27 55 -10.6 12.9
00:25 1015 29.97 844 24.92 -2.8 27 55 -10.7 12.7
00:30 1015 29.97 844 24.92 -2.9 26.8 55 -10.7 12.8
00:35 1015 29.97 844 24.92 -2.9 26.8 55 -10.8 12.6
00:40 1015 29.97 844 24.92 -2.7 27.2 54 -10.7 12.8
00:45 1015 29.97 844 24.92 -2.5 27.5 53 -10.8 12.5
00:50 1015 29.97 844 24.92 -2.4 27.7 53 -10.7 12.8
00:55 1015 29.97 844 24.92 -2.4 27.6 52 -10.9 12.4
01:00 1015 29.97 844 24.92 -2.4 27.7 52 -11 12.2
01:05 1015 29.97 844 24.92 -2.3 27.9 51 -11.1 12
01:10 1015 29.97 844 24.92 -2.5 27.5 53 -10.9 12.4
01:15 1015 29.97 844 24.92 -2.9 26.9 54 -10.8 12.5
01:20 1015 29.97 844 24.92 -3.2 26.2 56 -10.7 12.7
01:25 1015 29.97 844 24.92 -3.3 26 55 -11 12.1
01:30 1015 29.97 844 24.92 -3.3 26 56 -10.9 12.3
01:35 1015 29.97 844 24.92 -3.4 25.9 56 -10.9 12.4
01:40 1015 29.97 844 24.92 -3.6 25.6 57 -10.9 12.4
01:45 1015 29.97 844 24.92 -3.5 25.7 56 -11 12.2
01:50 1015 29.97 844 24.92 -3.5 25.6 55 -11.3 11.7
01:55 1015 29.97 844 24.92 -3.4 25.8 56 -10.9 12.4
02:00 1015 29.97 844 24.92 -3.6 25.6 57 -10.9 12.3
02:05 1015 29.97 844 24.92 -3.8 25.2 58 -10.9 12.4
02:10 1015 29.97 844 24.92 -3.8 25.1 57 -11.2 11.8
02:15 1015 29.97 844 24.92 -3.4 26 55 -11.2 11.9
02:20 1015 29.97 844 24.92 -3.3 26.1 54 -11.4 11.4
02:25 1015 29.97 844 24.92 -3.3 26.1 53 -11.5 11.3
02:30 1015 29.97 844 24.92 -3.2 26.2 52 -11.8 10.8
02:35 1015 29.97 844 24.92 -3.2 26.3 50 -12.1 10.1
02:40 1015 29.97 844 24.92 -3.8 25.1 53 -12.1 10.1
02:45 1015 29.97 844 24.92 -4.3 24.2 54 -12.4 9.7
02:50 1015 29.97 844 24.92 -4 24.8 51 -12.6 9.3
02:55 1015 29.97 844 24.92 -4.3 24.3 53 -12.6 9.4
03:00 1015 29.97 844 24.92 -4.4 24.1 53 -12.6 9.3
03:05 1015 29.97 844 24.92 -3.7 25.3 51 -12.5 9.5
03:10 1015 29.97 844 24.92 -3.5 25.7 51 -12.3 9.9
03:15 1015 29.97 844 24.92 -3.8 25.1 52 -12.3 9.8
03:20 1015 29.97 844 24.92 -4.2 24.4 53 -12.5 9.5
03:25 1015 29.97 844 24.92 -4.4 24 54 -12.4 9.6
03:30 1015 29.97 844 24.92 -4.8 23.4 55 -12.6 9.4
03:35 1015 29.97 844 24.92 -4.8 23.3 54 -12.8 9
03:40 1015 29.97 844 24.92 -4.9 23.1 54 -12.9 8.8
03:45 1015 29.97 844 24.92 -5 23 54 -13 8.6
03:50 1015 29.97 844 24.92 -5.1 22.8 54 -12.9 8.7
03:55 1014 29.94 844 24.92 -5.3 22.4 54 -13.2 8.3
04:00 1014 29.94 844 24.92 -5.2 22.7 54 -13.1 8.4
04:05 1014 29.94 843 24.89 -5.3 22.4 53 -13.6 7.6
04:10 1014 29.94 843 24.89 -5.2 22.6 51 -13.9 6.9
04:15 1014 29.94 843 24.89 -5 23 50 -14 6.9
04:20 1014 29.94 843 24.89 -5 22.9 51 -13.7 7.3
04:25 1014 29.94 843 24.89 -4.8 23.4 50 -13.8 7.2
04:30 1014 29.94 843 24.89 -4.1 24.6 47 -14 6.8
04:35 1014 29.94 843 24.89 -3.8 25.2 46 -13.9 6.9
04:40 1014 29.94 843 24.89 -4 24.8 47 -13.8 7.1
04:45 1014 29.94 843 24.89 -4 24.8 45 -14.1 6.5
04:50 1014 29.94 843 24.89 -3.9 24.9 46 -13.9 6.9
04:55 1014 29.94 843 24.89 -3.4 25.9 43 -14.1 6.5
05:00 1014 29.94 843 24.89 -3.1 26.4 41 -14.7 5.5
05:05 1014 29.94 843 24.89 -3 26.5 45 -13.5 7.7
05:10 1014 29.94 843 24.89 -3.7 25.4 46 -13.8 7.1
05:15 1014 29.94 843 24.89 -4.3 24.4 49 -13.6 7.6
05:20 1014 29.94 843 24.89 -4.8 23.4 51 -13.5 7.6
05:25 1014 29.94 843 24.89 -5.4 22.2 54 -13.4 7.8
05:30 1014 29.94 843 24.89 -5.8 21.6 53 -14 6.8
05:35 1014 29.94 843 24.89 -5.2 22.6 51 -13.7 7.3
05:40 1014 29.94 843 24.89 -5.2 22.7 52 -13.6 7.5
05:45 1014 29.94 843 24.89 -5.5 22.2 53 -13.6 7.5
05:50 1014 29.94 843 24.89 -5.2 22.6 51 -13.9 7
05:55 1014 29.94 843 24.89 -5 23 51 -13.8 7.2
06:00 1014 29.94 843 24.89 -5 23.1 51 -13.7 7.3
06:05 1014 29.94 843 24.89 -5.1 22.8 52 -13.7 7.4
06:10 1013 29.91 843 24.89 -5.2 22.7 52 -13.6 7.5
06:15 1013 29.91 843 24.89 -5 22.9 52 -13.4 8
06:20 1013 29.91 842 24.86 -4.9 23.2 50 -13.8 7.1
06:25 1013 29.91 842 24.86 -4.7 23.5 50 -13.6 7.6
06:30 1013 29.91 842 24.86 -4.8 23.3 51 -13.5 7.7
06:35 1013 29.91 842 24.86 -5.1 22.8 52 -13.5 7.6
06:40 1013 29.91 842 24.86 -5.5 22.2 54 -13.5 7.8
06:45 1013 29.91 842 24.86 -5.5 22 53 -13.8 7.2
06:50 1013 29.91 842 24.86 -5.2 22.7 51 -13.8 7.1
06:55 1013 29.91 842 24.86 -5.1 22.8 51 -13.9 7
07:00 1012 29.88 842 24.86 -5 23 49 -14 6.8
07:05 1012 29.88 842 24.86 -4.9 23.2 49 -14 6.8
07:10 1012 29.88 841 24.83 -4.8 23.4 50 -13.8 7.1
07:15 1012 29.88 841 24.83 -5 23 51 -13.6 7.5
07:20 1012 29.88 841 24.83 -5.2 22.6 52 -13.7 7.3
07:25 1012 29.88 841 24.83 -5.1 22.8 52 -13.6 7.6
07:30 1012 29.88 841 24.83 -5.1 22.9 50 -14 6.8
07:35 1012 29.88 841 24.83 -4.9 23.1 48 -14.3 6.3
07:40 1012 29.88 841 24.83 -4.6 23.7 48 -14.1 6.6
07:45 1012 29.88 841 24.83 -4.8 23.4 49 -13.9 7.1
07:50 1012 29.88 841 24.83 -5 23 51 -13.6 7.5
07:55 1012 29.88 841 24.83 -5 22.9 52 -13.3 8
08:00 1012 29.88 841 24.83 -5.6 21.9 52 -14 6.8
08:05 1012 29.88 841 24.83 -5.2 22.6 50 -14 6.8
08:10 1011 29.85 841 24.83 -5.2 22.7 50 -14 6.8
08:15 1011 29.85 841 24.83 -5 23.1 50 -14 6.9
08:20 1011 29.85 841 24.83 -5 23.1 50 -13.8 7.2
08:25 1011 29.85 841 24.83 -5.2 22.7 51 -13.9 7
08:30 1011 29.85 841 24.83 -5.1 22.8 51 -13.8 7.2
08:35 1011 29.85 841 24.83 -5.1 22.9 50 -13.9 6.9
08:40 1011 29.85 840 24.81 -4.9 23.2 51 -13.6 7.5
08:45 1011 29.85 840 24.81 -4.9 23.2 51 -13.5 7.6
08:50 1011 29.85 840 24.81 -4.8 23.3 51 -13.6 7.6
08:55 1011 29.85 840 24.81 -4.6 23.7 50 -13.5 7.7
09:00 1011 29.85 840 24.81 -4.6 23.8 50 -13.5 7.6
09:05 1011 29.85 840 24.81 -4.5 23.9 49 -13.7 7.3
09:10 1011 29.85 840 24.81 -4.4 24 49 -13.7 7.3
09:15 1011 29.85 840 24.81 -4.2 24.4 48 -13.7 7.3
09:20 1011 29.85 840 24.81 -4.2 24.5 48 -13.5 7.7
09:25 1011 29.85 840 24.81 -4.1 24.7 48 -13.5 7.6
09:30 1011 29.85 840 24.81 -4 24.9 49 -13.2 8.2
09:35 1011 29.85 840 24.81 -3.9 25 49 -13.2 8.2
09:40 1011 29.85 840 24.81 -3.9 24.9 49 -13.2 8.2
09:45 1011 29.85 840 24.81 -3.8 25.1 49 -13.1 8.5
09:50 1011 29.85 840 24.81 -3.7 25.4 48 -13.1 8.4
09:55 1011 29.85 840 24.81 -3.5 25.7 47 -13.2 8.3
10:00 1011 29.85 840 24.81 -3.3 26 48 -12.9 8.7
10:05 1011 29.85 840 24.81 -3.2 26.3 47 -12.9 8.8
10:10 1011 29.85 840 24.81 -3.1 26.5 47 -12.7 9.1
10:15 1011 29.85 840 24.81 -3 26.6 47 -12.7 9.1
10:20 1011 29.85 840 24.81 -2.9 26.8 47 -12.7 9.1
10:25 1010 29.83 840 24.81 -2.7 27.1 47 -12.6 9.4
10:30 1010 29.83 840 24.81 -2.7 27.2 46 -12.6 9.3
10:35 1010 29.83 840 24.81 -2.5 27.6 47 -12.4 9.7
10:40 1010 29.83 839 24.78 -2.3 27.9 46 -12.4 9.6
10:45 1010 29.83 839 24.78 -2.2 28 46 -12.5 9.6
10:50 1010 29.83 839 24.78 -2 28.5 45 -12.4 9.7
10:55 1010 29.83 839 24.78 -1.8 28.8 45 -12.3 9.9
11:00 1010 29.83 839 24.78 -1.6 29.1 44 -12.2 10
11:05 1010 29.83 839 24.78 -1.4 29.5 45 -12 10.4
11:10 1010 29.83 839 24.78 -1.3 29.7 44 -12 10.4
11:15 1009 29.8 839 24.78 -1.2 29.8 44 -12 10.3
11:20 1009 29.8 838 24.75 -1.1 30 44 -11.9 10.6
11:25 1009 29.8 838 24.75 -1.1 30 44 -11.8 10.8
11:30 1009 29.8 838 24.75 -1 30.2 45 -11.5 11.3
11:35 1009 29.8 838 24.75 -0.8 30.6 44 -11.7 10.9
11:40 1009 29.8 838 24.75 -0.6 30.9 43 -11.6 11.1
11:45 1009 29.8 838 24.75 -0.4 31.3 44 -11.3 11.6
11:50 1009 29.8 838 24.75 -0.2 31.6 44 -10.9 12.3
11:55 1009 29.8 838 24.75 -0.1 31.8 44 -11 12.2
12:00 1009 29.8 838 24.75 0.2 32.4 42 -11.3 11.7
12:05 1009 29.8 838 24.75 0.4 32.7 42 -11.2 11.9
12:10 1009 29.8 838 24.75 0.6 33 41 -11.1 12
12:15 1009 29.8 838 24.75 0.6 33 41 -11.4 11.5
12:20 1009 29.8 838 24.75 0.7 33.2 40 -11.4 11.5
12:25 1009 29.8 838 24.75 0.8 33.4 41 -11.1 12
12:30 1009 29.8 838 24.75 0.5 32.9 42 -10.9 12.4
12:35 1008 29.77 838 24.75 0.6 33.1 42 -11 12.2
12:40 1008 29.77 837 24.72 0.9 33.6 47 -9.3 15.3
12:45 1008 29.77 837 24.72 1.1 33.9 46 -9.4 15
12:50 1008 29.77 837 24.72 1 33.9 46 -9.3 15.2
12:55 1008 29.77 837 24.72 1.1 33.9 46 -9.2 15.5
13:00 1008 29.77 837 24.72 1.1 33.9 47 -9 15.9
13:05 1008 29.77 837 24.72 1.1 33.9 46 -9.2 15.4
13:10 1008 29.77 837 24.72 1 33.8 45 -9.7 14.6
13:15 1007 29.74 837 24.72 0.9 33.6 45 -9.7 14.6
13:20 1007 29.74 837 24.72 1.3 34.3 45 -9.5 15
13:25 1007 29.74 836 24.69 1.4 34.6 46 -9.1 15.7
13:30 1007 29.74 836 24.69 1.4 34.4 44 -9.6 14.8
13:35 1007 29.74 836 24.69 1.4 34.5 45 -9.3 15.2
13:40 1007 29.74 836 24.69 1.4 34.5 45 -9.3 15.2
13:45 1007 29.74 836 24.69 1.4 34.6 46 -9.1 15.6
13:50 1007 29.74 836 24.69 1.6 34.9 45 -9.1 15.7
13:55 1007 29.74 836 24.69 1.7 35.1 46 -8.7 16.4
14:00 1007 29.74 836 24.69 1.5 34.6 47 -8.7 16.3
14:05 1007 29.74 836 24.69 1.6 34.8 47 -8.6 16.6
14:10 1007 29.74 836 24.69 1.6 34.8 46 -8.9 16.1
14:15 1007 29.74 836 24.69 1.4 34.6 48 -8.5 16.8
14:20 1007 29.74 836 24.69 1.1 34 50 -8.3 17
14:25 1007 29.74 836 24.69 0.6 33.1 50 -8.7 16.4
14:30 1007 29.74 836 24.69 0.6 33 50 -8.7 16.3
14:35 1007 29.74 836 24.69 0.6 33 50 -8.6 16.6
14:40 1007 29.74 836 24.69 0.6 33 50 -8.7 16.3
14:45 1007 29.74 836 24.69 0.6 33.1 49 -8.9 16
14:50 1007 29.74 836 24.69 0.8 33.5 48 -9 15.7
14:55 1007 29.74 836 24.69 0.7 33.3 50 -8.7 16.4
15:00 1007 29.74 836 24.69 0.5 32.8 52 -8.2 17.2
15:05 1007 29.74 836 24.69 0.6 33 51 -8.4 16.9
15:10 1007 29.74 836 24.69 0.7 33.3 51 -8.4 16.9
15:15 1007 29.74 836 24.69 0.7 33.2 51 -8.4 17
15:20 1007 29.74 836 24.69 0.7 33.2 51 -8.4 17
15:25 1007 29.74 836 24.69 0.6 33.2 50 -8.5 16.7
15:30 1007 29.74 836 24.69 0.6 33 51 -8.4 16.8
15:35 1007 29.74 836 24.69 0.7 33.3 51 -8.3 17
15:40 1007 29.74 836 24.69 0.8 33.4 51 -8.2 17.2
15:45 1007 29.74 836 24.69 0.8 33.4 51 -8.2 17.2
15:50 1007 29.74 836 24.69 0.7 33.2 52 -8.1 17.4
15:55 1007 29.74 836 24.69 0.7 33.2 53 -7.8 18
16:00 1007 29.74 836 24.69 0.5 32.9 54 -7.7 18.1
16:05 1007 29.74 836 24.69 0.5 32.9 54 -7.7 18.2
16:10 1007 29.74 836 24.69 0.6 33 54 -7.6 18.4
16:15 1007 29.74 836 24.69 0.5 32.9 53 -7.9 17.7
16:20 1007 29.74 836 24.69 0.3 32.5 55 -7.8 18
16:25 1007 29.74 836 24.69 0.2 32.4 54 -8 17.7
16:30 1007 29.74 836 24.69 0.1 32.1 55 -7.9 17.8
16:35 1006 29.71 836 24.69 0.1 32.1 55 -7.8 17.9
16:40 1006 29.71 836 24.69 -0.1 31.7 57 -7.6 18.3
16:45 1006 29.71 836 24.69 -0.2 31.7 59 -7.3 18.9
16:50 1006 29.71 836 24.69 -0.5 31.2 59 -7.6 18.3
16:55 1006 29.71 836 24.69 -0.7 30.8 59 -7.7 18.2
17:00 1006 29.71 836 24.69 -0.6 30.9 59 -7.5 18.4
17:05 1007 29.74 836 24.69 -0.6 31 59 -7.6 18.3
17:10 1007 29.74 836 24.69 -0.6 31 59 -7.6 18.4
17:15 1007 29.74 836 24.69 -0.6 31 59 -7.5 18.4
17:20 1007 29.74 836 24.69 -0.6 30.9 59 -7.6 18.3
17:25 1007 29.74 836 24.69 -0.7 30.7 60 -7.6 18.3
17:30 1007 29.74 836 24.69 -0.6 30.9 59 -7.7 18.2
17:35 1007 29.74 836 24.69 -0.4 31.3 59 -7.4 18.8
17:40 1007 29.74 836 24.69 -0.1 31.8 58 -7.5 18.5
17:45 1007 29.74 836 24.69 0.1 32.3 57 -7.4 18.6
17:50 1007 29.74 837 24.72 0.1 32.3 57 -7.4 18.7
17:55 1007 29.74 837 24.72 0.2 32.4 55 -7.7 18.2
18:00 1007 29.74 837 24.72 0.4 32.8 55 -7.5 18.5
18:05 1007 29.74 837 24.72 0.5 32.9 55 -7.5 18.6
18:10 1007 29.74 837 24.72 0.5 32.9 55 -7.4 18.6
18:15 1007 29.74 837 24.72 0.2 32.4 59 -6.9 19.6
18:20 1007 29.74 837 24.72 -0.6 31 61 -7.2 19.1
18:25 1007 29.74 836 24.69 -1.1 30.1 64 -7 19.4
18:30 1007 29.74 836 24.69 -1.1 30 64 -7 19.4
18:35 1007 29.74 836 24.69 -1 30.2 63 -7.2 19.1
18:40 1007 29.74 836 24.69 -1.2 29.8 64 -7.3 18.9
18:45 1007 29.74 836 24.69 -1.1 29.9 63 -7.4 18.7
18:50 1007 29.74 836 24.69 -1.1 30 61 -7.6 18.2
18:55 1007 29.74 836 24.69 -1.1 30 59 -8 17.6
19:00 1007 29.74 836 24.69 -0.7 30.7 57 -8.2 17.2
19:05 1007 29.74 836 24.69 -0.4 31.3 56 -8 17.5
19:10 1007 29.74 836 24.69 -0.2 31.6 56 -8 17.6
19:15 1007 29.74 837 24.72 -0.2 31.6 56 -7.9 17.8
19:20 1007 29.74 837 24.72 -0.2 31.6 55 -8.2 17.3
19:25 1007 29.74 836 24.69 -0.1 31.9 53 -8.5 16.7
19:30 1007 29.74 837 24.72 0.1 32.2 55 -7.9 17.8
19:35 1007 29.74 837 24.72 -0.2 31.7 55 -8.1 17.5
19:40 1008 29.77 837 24.72 -0.2 31.7 55 -8.2 17.3
19:45 1008 29.77 837 24.72 -0.1 31.8 54 -8.2 17.2
19:50 1008 29.77 837 24.72 -0 32 54 -8.3 17.1
19:55 1008 29.77 837 24.72 0.2 32.3 55 -8 17.7
20:00 1008 29.77 837 24.72 0.1 32.2 55 -7.9 17.7
20:05 1008 29.77 837 24.72 -0.1 31.9 56 -7.8 17.9
20:10 1008 29.77 837 24.72 -0.2 31.6 57 -7.7 18.1
20:15 1008 29.77 837 24.72 -0.4 31.3 58 -7.6 18.4
20:20 1008 29.77 837 24.72 -0.5 31.1 59 -7.5 18.5
20:25 1008 29.77 837 24.72 -0.6 30.9 60 -7.3 18.8
20:30 1008 29.77 837 24.72 -0.6 30.9 60 -7.5 18.6
20:35 1008 29.77 837 24.72 -0.6 31 60 -7.5 18.5
20:40 1008 29.77 837 24.72 -0.6 31 61 -7.3 18.9
20:45 1008 29.77 837 24.72 -0.6 31 61 -7.2 19
20:50 1008 29.77 837 24.72 -0.6 30.9 61 -7.2 19
20:55 1008 29.77 837 24.72 -0.6 31 60 -7.3 18.8
21:00 1008 29.77 837 24.72 -0.5 31 60 -7.4 18.6
21:05 1008 29.77 837 24.72 -0.6 30.9 61 -7.2 19
21:10 1008 29.77 837 24.72 -0.8 30.6 61 -7.3 18.9
21:15 1008 29.77 837 24.72 -0.8 30.5 62 -7.3 18.9
21:20 1008 29.77 837 24.72 -0.9 30.4 61 -7.5 18.5
21:25 1008 29.77 838 24.75 -0.9 30.4 61 -7.5 18.5
21:30 1008 29.77 838 24.75 -0.9 30.4 61 -7.4 18.7
21:35 1008 29.77 838 24.75 -0.9 30.4 62 -7.4 18.7
21:40 1009 29.8 838 24.75 -0.9 30.3 61 -7.5 18.5
21:45 1009 29.8 838 24.75 -0.7 30.7 60 -7.5 18.5
21:50 1009 29.8 838 24.75 -0.7 30.7 59 -7.7 18.1
21:55 1009 29.8 838 24.75 -0.6 30.9 59 -7.6 18.2
22:00 1009 29.8 838 24.75 -0.8 30.6 67 -6.2 20.9
22:05 1009 29.8 838 24.75 -1.2 29.8 73 -5.4 22.3
22:10 1009 29.8 838 24.75 -1.7 28.9 79 -5 23.1
22:15 1009 29.8 838 24.75 -1.9 28.5 79 -5 22.9
22:20 1009 29.8 838 24.75 -1.8 28.7 76 -5.5 22.1
22:25 1009 29.8 838 24.75 -1.6 29.1 72 -6 21.3
22:30 1009 29.8 838 24.75 -1.4 29.5 70 -6.1 21
22:35 1009 29.8 838 24.75 -1.4 29.6 73 -5.6 21.9
22:40 1009 29.8 838 24.75 -1.8 28.8 77 -5.2 22.6
22:45 1009 29.8 838 24.75 -2 28.4 78 -5.4 22.3
22:50 1009 29.8 838 24.75 -2 28.4 73 -6.2 20.9
22:55 1009 29.8 838 24.75 -1.5 29.4 66 -6.9 19.5
23:00 1009 29.8 838 24.75 -1.1 30 63 -7.3 18.9
23:05 1009 29.8 838 24.75 -0.9 30.3 61 -7.6 18.4
23:10 1009 29.8 838 24.75 -0.8 30.5 59 -7.8 18
23:15 1009 29.8 838 24.75 -0.8 30.6 59 -7.9 17.8
23:20 1009 29.8 838 24.75 -0.9 30.4 59 -7.8 17.9
23:25 1009 29.8 838 24.75 -0.9 30.4 58 -8.1 17.4
23:30 1009 29.8 838 24.75 -0.9 30.5 59 -7.9 17.7
23:35 1009 29.8 838 24.75 -0.9 30.4 59 -7.9 17.7
23:40 1009 29.8 838 24.75 -0.9 30.4 58 -8 17.6
23:45 1009 29.8 838 24.75 -0.8 30.6 59 -7.9 17.8
23:50 1009 29.8 838 24.75 -0.8 30.6 59 -7.8 18
23:55 1009 29.8 838 24.75 -0.9 30.3 60 -7.7 18.1
24:00 1009 29.8 838 24.75 -1 30.2 60 -7.8 17.9